HAVEL LYBJ-LDOB
Flight info
| Callsign | HAVEL |
|---|---|
| Flight time | 0h 33m |
| Altitude | 2500 |
| Route | KOVWU DCT POXSU DCT IA DCT 4512N01956E DCT TADAM DCT PEROT |
| Aircraft | DA42/L-SDE3FGHIRWY/S |
Departure
| Time | 2026-04-12 08:35 |
|---|---|
| Airport | Lisičji Jarak Airfield (LYBJ) |
Arrival
| Time | 2026-04-12 09:09 |
|---|---|
| Airport | Vukovar Borovo Recreational Airfield (LDOB) |
| Time | Latitude | Longitude | Altitude | Speed | Heading |
|---|---|---|---|---|---|
| 2026-04-12 08:31 | 44.93485 | 20.44388 | 238 ft | 0 kts | 177° |
| 2026-04-12 08:32 | 44.93475 | 20.44403 | 238 ft | 9 kts | 94° |
| 2026-04-12 08:32 | 44.93516 | 20.44391 | 238 ft | 16 kts | 325° |
| 2026-04-12 08:33 | 44.93722 | 20.44342 | 236 ft | 30 kts | 351° |
| 2026-04-12 08:33 | 44.93912 | 20.44303 | 236 ft | 23 kts | 354° |
| 2026-04-12 08:33 | 44.94072 | 20.44274 | 237 ft | 27 kts | 352° |
| 2026-04-12 08:33 | 44.94259 | 20.44242 | 237 ft | 20 kts | 353° |
| 2026-04-12 08:34 | 44.94287 | 20.44291 | 238 ft | 0 kts | 145° |
| 2026-04-12 08:34 | 44.94280 | 20.44296 | 238 ft | 7 kts | 146° |
| 2026-04-12 08:34 | 44.94088 | 20.44452 | 239 ft | 58 kts | 151° |
| 2026-04-12 08:34 | 44.93641 | 20.44831 | 338 ft | 80 kts | 141° |
| 2026-04-12 08:35 | 44.93339 | 20.45137 | 492 ft | 82 kts | 138° |
| 2026-04-12 08:35 | 44.92884 | 20.45669 | 753 ft | 87 kts | 138° |
| 2026-04-12 08:35 | 44.92040 | 20.45768 | 1150 ft | 99 kts | 182° |
| 2026-04-12 08:35 | 44.91571 | 20.45681 | 1312 ft | 105 kts | 182° |
| 2026-04-12 08:36 | 44.90801 | 20.45549 | 1490 ft | 117 kts | 185° |
| 2026-04-12 08:36 | 44.90139 | 20.44853 | 1732 ft | 133 kts | 233° |
| 2026-04-12 08:36 | 44.89605 | 20.43692 | 1946 ft | 147 kts | 234° |
| 2026-04-12 08:36 | 44.89027 | 20.42445 | 2157 ft | 156 kts | 233° |
| 2026-04-12 08:37 | 44.88417 | 20.41120 | 2368 ft | 164 kts | 235° |
| 2026-04-12 08:37 | 44.87814 | 20.39824 | 2509 ft | 159 kts | 234° |
| 2026-04-12 08:37 | 44.87162 | 20.38499 | 2463 ft | 164 kts | 224° |
| 2026-04-12 08:37 | 44.86335 | 20.37484 | 2489 ft | 154 kts | 216° |
| 2026-04-12 08:38 | 44.85494 | 20.36526 | 2470 ft | 157 kts | 215° |
| 2026-04-12 08:38 | 44.84909 | 20.35257 | 2488 ft | 163 kts | 257° |
| 2026-04-12 08:38 | 44.85152 | 20.33717 | 2496 ft | 166 kts | 305° |
| 2026-04-12 08:38 | 44.85965 | 20.32570 | 2501 ft | 166 kts | 320° |
| 2026-04-12 08:39 | 44.86826 | 20.31517 | 2479 ft | 160 kts | 322° |
| 2026-04-12 08:39 | 44.87661 | 20.30467 | 2463 ft | 163 kts | 316° |
| 2026-04-12 08:39 | 44.88411 | 20.29321 | 2514 ft | 159 kts | 314° |
| 2026-04-12 08:39 | 44.89127 | 20.28136 | 2511 ft | 157 kts | 312° |
| 2026-04-12 08:40 | 44.89857 | 20.26944 | 2494 ft | 163 kts | 313° |
| 2026-04-12 08:40 | 44.90595 | 20.25734 | 2479 ft | 165 kts | 312° |
| 2026-04-12 08:40 | 44.91348 | 20.24497 | 2496 ft | 166 kts | 312° |
| 2026-04-12 08:40 | 44.92113 | 20.23262 | 2488 ft | 164 kts | 313° |
| 2026-04-12 08:41 | 44.92846 | 20.22063 | 2471 ft | 161 kts | 312° |
| 2026-04-12 08:41 | 44.93560 | 20.20876 | 2493 ft | 158 kts | 313° |
| 2026-04-12 08:41 | 44.94267 | 20.19709 | 2490 ft | 158 kts | 312° |
| 2026-04-12 08:41 | 44.94977 | 20.18531 | 2471 ft | 155 kts | 313° |
| 2026-04-12 08:42 | 44.95674 | 20.17383 | 2492 ft | 154 kts | 313° |
| 2026-04-12 08:42 | 44.96372 | 20.16240 | 2493 ft | 154 kts | 313° |
| 2026-04-12 08:42 | 44.97071 | 20.15097 | 2492 ft | 153 kts | 314° |
| 2026-04-12 08:42 | 44.97905 | 20.14182 | 2491 ft | 152 kts | 330° |
| 2026-04-12 08:43 | 44.98794 | 20.13382 | 2486 ft | 151 kts | 332° |
| 2026-04-12 08:43 | 44.99703 | 20.12685 | 2497 ft | 151 kts | 335° |
| 2026-04-12 08:43 | 45.00635 | 20.11991 | 2501 ft | 152 kts | 335° |
| 2026-04-12 08:43 | 45.01592 | 20.11283 | 2496 ft | 157 kts | 335° |
| 2026-04-12 08:44 | 45.02548 | 20.10571 | 2497 ft | 153 kts | 335° |
| 2026-04-12 08:44 | 45.03485 | 20.09872 | 2500 ft | 151 kts | 335° |
| 2026-04-12 08:44 | 45.04423 | 20.09167 | 2489 ft | 154 kts | 335° |
| 2026-04-12 08:44 | 45.05365 | 20.08466 | 2494 ft | 156 kts | 336° |
| 2026-04-12 08:45 | 45.06343 | 20.07786 | 2494 ft | 155 kts | 345° |
| 2026-04-12 08:45 | 45.07388 | 20.07449 | 2479 ft | 153 kts | 353° |
| 2026-04-12 08:45 | 45.08447 | 20.07157 | 2475 ft | 153 kts | 353° |
| 2026-04-12 08:45 | 45.09502 | 20.06871 | 2485 ft | 155 kts | 353° |
| 2026-04-12 08:46 | 45.10551 | 20.06578 | 2477 ft | 150 kts | 353° |
| 2026-04-12 08:46 | 45.11558 | 20.06205 | 2487 ft | 153 kts | 339° |
| 2026-04-12 08:46 | 45.13424 | 20.04666 | 2486 ft | 156 kts | 331° |
| 2026-04-12 08:47 | 45.14357 | 20.03861 | 2484 ft | 156 kts | 332° |
| 2026-04-12 08:47 | 45.15300 | 20.03046 | 2478 ft | 161 kts | 332° |
| 2026-04-12 08:47 | 45.16254 | 20.02229 | 2491 ft | 161 kts | 331° |
| 2026-04-12 08:47 | 45.17099 | 20.01189 | 2482 ft | 159 kts | 310° |
| 2026-04-12 08:48 | 45.17797 | 19.99991 | 2478 ft | 159 kts | 311° |
| 2026-04-12 08:48 | 45.18505 | 19.98777 | 2479 ft | 157 kts | 311° |
| 2026-04-12 08:48 | 45.19198 | 19.97595 | 2480 ft | 154 kts | 311° |
| 2026-04-12 08:48 | 45.19883 | 19.96432 | 2465 ft | 154 kts | 311° |
| 2026-04-12 08:49 | 45.20560 | 19.95284 | 2488 ft | 151 kts | 311° |
| 2026-04-12 08:49 | 45.21233 | 19.94139 | 2475 ft | 152 kts | 311° |
| 2026-04-12 08:49 | 45.21919 | 19.92973 | 2477 ft | 156 kts | 305° |
| 2026-04-12 08:49 | 45.22195 | 19.91506 | 2469 ft | 155 kts | 272° |
| 2026-04-12 08:50 | 45.22250 | 19.90014 | 2490 ft | 156 kts | 270° |
| 2026-04-12 08:50 | 45.22304 | 19.88428 | 2476 ft | 163 kts | 271° |
| 2026-04-12 08:50 | 45.22367 | 19.86842 | 2474 ft | 163 kts | 271° |
| 2026-04-12 08:50 | 45.22432 | 19.85229 | 2475 ft | 164 kts | 271° |
| 2026-04-12 08:51 | 45.22500 | 19.83605 | 2472 ft | 165 kts | 271° |
| 2026-04-12 08:51 | 45.22563 | 19.82004 | 2466 ft | 161 kts | 271° |
| 2026-04-12 08:51 | 45.22631 | 19.80470 | 2466 ft | 155 kts | 271° |
| 2026-04-12 08:51 | 45.22707 | 19.78957 | 2468 ft | 153 kts | 272° |
| 2026-04-12 08:52 | 45.22774 | 19.77416 | 2478 ft | 161 kts | 271° |
| 2026-04-12 08:52 | 45.22834 | 19.75833 | 2460 ft | 158 kts | 272° |
| 2026-04-12 08:52 | 45.22875 | 19.74307 | 2462 ft | 154 kts | 266° |
| 2026-04-12 08:52 | 45.22807 | 19.72793 | 2466 ft | 154 kts | 264° |
| 2026-04-12 08:53 | 45.22725 | 19.71289 | 2487 ft | 153 kts | 263° |
| 2026-04-12 08:53 | 45.22654 | 19.69754 | 2465 ft | 154 kts | 263° |
| 2026-04-12 08:53 | 45.22578 | 19.68249 | 2473 ft | 153 kts | 263° |
| 2026-04-12 08:53 | 45.22494 | 19.66739 | 2483 ft | 156 kts | 263° |
| 2026-04-12 08:54 | 45.22424 | 19.65177 | 2462 ft | 162 kts | 270° |
| 2026-04-12 08:54 | 45.22701 | 19.63641 | 2474 ft | 160 kts | 288° |
| 2026-04-12 08:54 | 45.23043 | 19.62130 | 2484 ft | 163 kts | 287° |
| 2026-04-12 08:54 | 45.23390 | 19.60587 | 2468 ft | 164 kts | 287° |
| 2026-04-12 08:55 | 45.23753 | 19.59035 | 2456 ft | 165 kts | 288° |
| 2026-04-12 08:55 | 45.23899 | 19.57492 | 2464 ft | 157 kts | 269° |
| 2026-04-12 08:55 | 45.23929 | 19.55946 | 2471 ft | 158 kts | 269° |
| 2026-04-12 08:55 | 45.23963 | 19.54366 | 2475 ft | 162 kts | 269° |
| 2026-04-12 08:56 | 45.23975 | 19.52751 | 2465 ft | 163 kts | 266° |
| 2026-04-12 08:56 | 45.23939 | 19.51162 | 2459 ft | 164 kts | 265° |
| 2026-04-12 08:56 | 45.23901 | 19.49571 | 2462 ft | 158 kts | 265° |
| 2026-04-12 08:56 | 45.23869 | 19.48012 | 2468 ft | 157 kts | 265° |
| 2026-04-12 08:57 | 45.23836 | 19.46467 | 2467 ft | 156 kts | 265° |
| 2026-04-12 08:57 | 45.23809 | 19.44938 | 2465 ft | 154 kts | 266° |
| 2026-04-12 08:57 | 45.23769 | 19.43413 | 2464 ft | 161 kts | 265° |
| 2026-04-12 08:57 | 45.23730 | 19.41826 | 2486 ft | 159 kts | 265° |
| 2026-04-12 08:58 | 45.23711 | 19.40272 | 2488 ft | 156 kts | 265° |
| 2026-04-12 08:58 | 45.23683 | 19.38739 | 2490 ft | 154 kts | 265° |
| 2026-04-12 08:58 | 45.23658 | 19.37225 | 2489 ft | 153 kts | 265° |
| 2026-04-12 08:58 | 45.23635 | 19.35730 | 2487 ft | 151 kts | 264° |
| 2026-04-12 08:59 | 45.23607 | 19.34218 | 2485 ft | 153 kts | 265° |
| 2026-04-12 08:59 | 45.23583 | 19.32709 | 2517 ft | 154 kts | 266° |
| 2026-04-12 08:59 | 45.23541 | 19.31136 | 2480 ft | 160 kts | 266° |
| 2026-04-12 08:59 | 45.23643 | 19.29576 | 2486 ft | 158 kts | 276° |
| 2026-04-12 09:00 | 45.23799 | 19.28053 | 2488 ft | 158 kts | 277° |
| 2026-04-12 09:00 | 45.24085 | 19.26561 | 2484 ft | 156 kts | 293° |
| 2026-04-12 09:00 | 45.24520 | 19.25152 | 2487 ft | 156 kts | 294° |
| 2026-04-12 09:00 | 45.24962 | 19.23731 | 2487 ft | 158 kts | 293° |
| 2026-04-12 09:01 | 45.25411 | 19.22299 | 2486 ft | 159 kts | 294° |
| 2026-04-12 09:01 | 45.25891 | 19.20889 | 2490 ft | 159 kts | 295° |
| 2026-04-12 09:01 | 45.26375 | 19.19474 | 2489 ft | 159 kts | 295° |
| 2026-04-12 09:01 | 45.26858 | 19.18061 | 2494 ft | 159 kts | 295° |
| 2026-04-12 09:02 | 45.27341 | 19.16651 | 2495 ft | 159 kts | 295° |
| 2026-04-12 09:02 | 45.27827 | 19.15249 | 2495 ft | 158 kts | 295° |
| 2026-04-12 09:02 | 45.28309 | 19.13848 | 2489 ft | 157 kts | 295° |
| 2026-04-12 09:02 | 45.28814 | 19.12478 | 2497 ft | 158 kts | 303° |
| 2026-04-12 09:03 | 45.29451 | 19.11225 | 2489 ft | 158 kts | 307° |
| 2026-04-12 09:03 | 45.30128 | 19.09999 | 2490 ft | 157 kts | 311° |
| 2026-04-12 09:03 | 45.30842 | 19.08813 | 2487 ft | 158 kts | 311° |
| 2026-04-12 09:03 | 45.31569 | 19.07617 | 2498 ft | 165 kts | 310° |
| 2026-04-12 09:04 | 45.32330 | 19.06366 | 2510 ft | 168 kts | 310° |
| 2026-04-12 09:04 | 45.33095 | 19.05106 | 2488 ft | 167 kts | 307° |
| 2026-04-12 09:04 | 45.33796 | 19.03763 | 2429 ft | 173 kts | 307° |
| 2026-04-12 09:04 | 45.34524 | 19.02377 | 2205 ft | 170 kts | 306° |
| 2026-04-12 09:05 | 45.35197 | 19.01073 | 1994 ft | 161 kts | 307° |
| 2026-04-12 09:05 | 45.35843 | 18.99807 | 1787 ft | 156 kts | 306° |
| 2026-04-12 09:05 | 45.36477 | 18.98558 | 1578 ft | 155 kts | 306° |
| 2026-04-12 09:05 | 45.37224 | 18.97485 | 1420 ft | 150 kts | 331° |
| 2026-04-12 09:06 | 45.38150 | 18.96881 | 1246 ft | 145 kts | 342° |
| 2026-04-12 09:06 | 45.39120 | 18.96677 | 1155 ft | 138 kts | 359° |
| 2026-04-12 09:06 | 45.40046 | 18.96574 | 1086 ft | 131 kts | 358° |
| 2026-04-12 09:06 | 45.40899 | 18.96508 | 971 ft | 117 kts | 4° |
| 2026-04-12 09:07 | 45.41630 | 18.96182 | 897 ft | 112 kts | 310° |
| 2026-04-12 09:07 | 45.41706 | 18.95174 | 926 ft | 100 kts | 239° |
| 2026-04-12 09:07 | 45.41175 | 18.94712 | 908 ft | 88 kts | 179° |
| 2026-04-12 09:07 | 45.40588 | 18.94618 | 819 ft | 80 kts | 180° |
| 2026-04-12 09:08 | 45.40072 | 18.94724 | 707 ft | 75 kts | 149° |
| 2026-04-12 09:08 | 45.39641 | 18.95153 | 571 ft | 76 kts | 140° |
| 2026-04-12 09:08 | 45.39230 | 18.95611 | 429 ft | 72 kts | 135° |
| 2026-04-12 09:08 | 45.38854 | 18.96031 | 300 ft | 59 kts | 136° |
| 2026-04-12 09:09 | 45.38632 | 18.96285 | 295 ft | 28 kts | 141° |
| 2026-04-12 09:09 | 45.38518 | 18.96413 | 291 ft | 14 kts | 143° |
| 2026-04-12 09:09 | 45.38415 | 18.96527 | 289 ft | 21 kts | 148° |
| 2026-04-12 09:09 | 45.38297 | 18.96578 | 289 ft | 20 kts | 222° |
| 2026-04-12 09:10 | 45.38319 | 18.96507 | 288 ft | 0 kts | 8° |
| 2026-04-12 09:12 | 45.38318 | 18.96507 | 288 ft | 0 kts | 8° |
| 2026-04-12 09:16 | 45.38317 | 18.96507 | 288 ft | 0 kts | 8° |